createdAt,value
2022-12-23T00:10:39.889Z,19.70
2022-12-23T00:13:27.367Z,19.90
2022-12-23T00:16:11.942Z,19.42
2022-12-23T00:18:39.468Z,18.33
2022-12-23T00:21:09.137Z,18.48
2022-12-23T00:23:38.231Z,15.18
2022-12-23T00:26:05.468Z,18.88
2022-12-23T00:28:32.630Z,18.55
2022-12-23T00:31:01.082Z,19.10
2022-12-23T00:33:29.428Z,19.70
2022-12-23T00:35:57.119Z,17.73
2022-12-23T00:38:44.857Z,19.80
2022-12-23T00:41:35.077Z,21.83
2022-12-23T00:44:02.986Z,24.33
2022-12-23T00:46:30.262Z,23.35
2022-12-23T00:49:17.291Z,24.77
2022-12-23T00:51:44.364Z,21.58
2022-12-23T00:54:11.405Z,21.60
2022-12-23T00:56:38.588Z,23.33
2022-12-23T00:59:05.737Z,20.67
2022-12-23T01:01:52.971Z,20.80
2022-12-23T01:04:40.226Z,21.85
2022-12-23T01:07:07.400Z,20.15
2022-12-23T01:22:25.569Z,24.52
2022-12-23T01:24:53.602Z,23.20
2022-12-23T01:27:20.729Z,21.02
2022-12-23T01:29:47.797Z,22.40
2022-12-23T01:32:14.938Z,21.52
2022-12-23T01:34:42.128Z,20.00
2022-12-23T01:37:09.312Z,24.13
2022-12-23T01:39:36.418Z,22.27
2022-12-23T01:42:23.444Z,22.35
2022-12-23T01:44:51.950Z,24.38
2022-12-23T01:47:38.883Z,31.92
2022-12-23T01:52:52.880Z,21.95
2022-12-23T01:55:23.508Z,23.48
2022-12-23T01:57:51.625Z,24.55
2022-12-23T02:00:38.672Z,22.73
2022-12-23T02:03:25.689Z,30.70
2022-12-23T02:05:53.641Z,28.25
2022-12-23T02:08:40.583Z,31.02
2022-12-23T02:14:11.760Z,29.17
2022-12-23T02:16:43.987Z,24.88
2022-12-23T02:19:14.450Z,22.92
2022-12-23T02:34:41.019Z,22.92
2022-12-23T02:37:17.346Z,25.80
2022-12-23T02:39:50.880Z,28.52
2022-12-23T02:42:20.950Z,26.42
2022-12-23T02:44:54.759Z,24.05
2022-12-23T02:47:24.892Z,27.60
2022-12-23T02:49:54.432Z,25.88
2022-12-23T02:52:24.405Z,22.35
2022-12-23T02:54:53.979Z,27.63
2022-12-23T02:57:23.818Z,24.33
2022-12-23T02:59:51.902Z,26.30
2022-12-23T03:02:19.978Z,20.75
2022-12-23T03:04:47.749Z,21.80
2022-12-23T03:07:18.991Z,22.98
2022-12-23T03:10:00.993Z,22.08
2022-12-23T03:15:22.465Z,22.40
2022-12-23T03:17:57.921Z,26.05
2022-12-23T03:20:27.490Z,28.50
2022-12-23T03:25:39.204Z,19.35
2022-12-23T03:30:49.173Z,30.10
2022-12-23T03:46:12.950Z,31.73
2022-12-23T03:48:43.797Z,34.28
2022-12-23T03:51:13.536Z,30.65
2022-12-23T03:54:00.473Z,26.30
2022-12-23T03:56:31.420Z,29.25
2022-12-23T03:58:59.732Z,31.73
2022-12-23T04:01:35.492Z,35.20
2022-12-23T04:04:22.677Z,31.80
2022-12-23T04:07:08.994Z,29.33
2022-12-23T04:09:36.681Z,28.30
2022-12-23T04:12:04.325Z,33.20
2022-12-23T04:14:32.593Z,34.30
2022-12-23T04:16:59.806Z,30.25
2022-12-23T04:19:27.106Z,29.80
2022-12-23T04:21:56.147Z,27.88
2022-12-23T04:24:23.226Z,28.65
2022-12-23T04:26:50.367Z,33.08
2022-12-23T04:29:17.516Z,27.30
2022-12-23T04:31:44.724Z,29.15
2022-12-23T04:34:12.066Z,33.13
2022-12-23T04:36:39.237Z,26.95
2022-12-23T04:39:06.440Z,32.45
2022-12-23T04:41:33.634Z,32.88
2022-12-23T04:57:14.802Z,34.35
2022-12-23T04:59:42.735Z,29.73
2022-12-23T05:02:10.537Z,23.27
2022-12-23T05:04:37.908Z,29.55
2022-12-23T05:07:05.184Z,31.92
2022-12-23T05:09:32.320Z,28.77
2022-12-23T05:11:59.479Z,27.92
2022-12-23T05:14:26.577Z,29.27
2022-12-23T05:16:53.748Z,28.20
2022-12-23T05:19:20.864Z,27.80
2022-12-23T05:21:48.000Z,28.63
2022-12-23T05:24:15.186Z,28.77
2022-12-23T05:26:47.610Z,25.17
2022-12-23T05:29:15.723Z,26.20
2022-12-23T05:31:43.031Z,29.63
2022-12-23T05:34:10.378Z,26.63
2022-12-23T05:36:37.605Z,27.05
2022-12-23T05:39:04.724Z,29.67
2022-12-23T05:41:31.869Z,27.80
2022-12-23T05:43:59.007Z,26.83
2022-12-23T05:46:27.037Z,30.00
2022-12-23T05:48:54.812Z,32.70
2022-12-23T05:51:22.116Z,30.10
2022-12-23T05:53:49.366Z,25.67
2022-12-23T06:09:26.698Z,30.67
2022-12-23T06:12:01.637Z,30.60
2022-12-23T06:14:29.485Z,32.05
2022-12-23T06:16:56.971Z,28.70
2022-12-23T06:19:24.374Z,31.80
2022-12-23T06:21:51.491Z,31.35
2022-12-23T06:24:18.638Z,31.85
2022-12-23T06:26:45.776Z,29.55
2022-12-23T06:29:12.852Z,25.95
2022-12-23T06:31:40.070Z,31.48
2022-12-23T06:34:07.294Z,27.80
2022-12-23T06:36:34.384Z,28.00
2022-12-23T06:39:01.571Z,21.50
2022-12-23T06:41:28.787Z,31.92
2022-12-23T06:43:55.959Z,28.88
2022-12-23T06:46:23.234Z,27.65
2022-12-23T06:48:50.467Z,33.28
2022-12-23T06:51:17.667Z,34.42
2022-12-23T06:53:44.816Z,30.42
2022-12-23T06:56:12.009Z,34.08
2022-12-23T06:58:39.090Z,32.95
2022-12-23T07:01:06.670Z,31.65
2022-12-23T07:03:34.049Z,31.98
2022-12-23T07:06:01.353Z,29.23
2022-12-23T07:21:39.670Z,25.73
2022-12-23T07:24:07.587Z,29.33
2022-12-23T07:26:34.698Z,26.98
2022-12-23T07:29:02.469Z,25.83
2022-12-23T07:31:29.751Z,27.05
2022-12-23T07:33:56.856Z,19.25
2022-12-23T07:36:24.003Z,24.25
2022-12-23T07:38:52.080Z,22.33
2022-12-23T07:41:19.280Z,24.65
2022-12-23T07:43:46.960Z,26.13
2022-12-23T07:46:14.438Z,19.98
2022-12-23T07:48:42.198Z,26.65
2022-12-23T07:51:09.738Z,22.63
2022-12-23T07:53:36.827Z,22.20
2022-12-23T07:56:04.068Z,21.42
2022-12-23T07:58:31.159Z,21.45
2022-12-23T08:01:00.611Z,24.17
2022-12-23T08:03:27.809Z,18.00
2022-12-23T08:06:04.042Z,21.90
2022-12-23T08:08:31.644Z,21.00
2022-12-23T08:11:00.189Z,23.13
2022-12-23T08:13:27.528Z,19.50
2022-12-23T08:15:56.054Z,21.90
2022-12-23T08:18:23.245Z,21.75
2022-12-23T08:33:56.967Z,20.35
2022-12-23T08:36:25.371Z,18.67
2022-12-23T08:38:53.617Z,23.23
2022-12-23T08:41:22.632Z,19.02
2022-12-23T08:43:50.016Z,14.27
2022-12-23T08:46:17.354Z,18.23
2022-12-23T08:48:49.174Z,20.05
2022-12-23T08:51:18.001Z,17.88
2022-12-23T08:53:45.296Z,19.17
2022-12-23T08:56:13.588Z,18.45
2022-12-23T08:58:42.341Z,17.20
2022-12-23T09:01:11.099Z,19.73
2022-12-23T09:03:39.158Z,17.88
2022-12-23T09:06:07.318Z,16.83
2022-12-23T09:08:34.586Z,16.77
2022-12-23T09:11:01.782Z,17.33
2022-12-23T09:13:35.150Z,17.45
2022-12-23T09:16:03.550Z,18.27
2022-12-23T09:18:30.963Z,20.98
2022-12-23T09:20:59.436Z,18.10
2022-12-23T09:23:27.037Z,18.65
2022-12-23T09:25:54.762Z,14.80
2022-12-23T09:28:22.198Z,16.80
2022-12-23T09:30:49.343Z,16.50
2022-12-23T09:46:24.434Z,21.52
2022-12-23T09:51:31.325Z,16.88
2022-12-23T09:54:03.566Z,16.92
2022-12-23T09:56:36.653Z,15.75
2022-12-23T09:59:11.578Z,15.77
2022-12-23T10:01:45.586Z,19.38
2022-12-23T10:04:32.779Z,18.55
2022-12-23T10:07:19.841Z,17.40
2022-12-23T10:09:49.457Z,18.63
2022-12-23T10:12:28.788Z,18.85
2022-12-23T10:14:58.939Z,18.17
2022-12-23T10:17:28.729Z,16.23
2022-12-23T10:19:58.684Z,15.15
2022-12-23T10:22:30.173Z,22.40
2022-12-23T10:24:58.207Z,18.85
2022-12-23T10:27:36.017Z,18.55
2022-12-23T10:30:33.706Z,17.80
2022-12-23T10:32:59.795Z,15.40
2022-12-23T10:35:46.788Z,15.43
2022-12-23T10:43:36.081Z,20.70
2022-12-23T10:58:58.980Z,21.83
2022-12-23T11:01:27.541Z,22.45
2022-12-23T11:03:58.553Z,23.80
2022-12-23T11:06:29.021Z,22.38
2022-12-23T11:09:01.156Z,19.50
2022-12-23T11:11:48.218Z,20.08
2022-12-23T11:14:35.190Z,21.40
2022-12-23T11:17:02.665Z,18.80
2022-12-23T11:19:30.004Z,21.00
2022-12-23T11:21:58.767Z,21.42
2022-12-23T11:24:26.870Z,20.67
2022-12-23T11:27:12.799Z,22.23
2022-12-23T11:29:44.201Z,16.85
2022-12-23T11:32:16.770Z,20.65
2022-12-23T11:34:46.118Z,19.90
2022-12-23T11:37:33.091Z,19.30
2022-12-23T11:40:00.209Z,21.90
2022-12-23T11:42:29.457Z,18.83
2022-12-23T11:44:58.913Z,23.95
2022-12-23T11:50:06.781Z,19.98
2022-12-23T11:52:34.018Z,21.25
2022-12-23T11:55:05.268Z,21.60
2022-12-23T12:10:27.442Z,17.40
2022-12-23T12:12:57.180Z,16.98
2022-12-23T12:15:44.390Z,13.50
2022-12-23T12:18:13.797Z,16.80
2022-12-23T12:21:00.390Z,16.85
2022-12-23T12:23:46.398Z,14.15
2022-12-23T12:26:20.708Z,13.70
2022-12-23T12:28:51.375Z,14.80
2022-12-23T12:31:24.217Z,15.10
2022-12-23T12:33:54.398Z,14.63
2022-12-23T12:39:09.778Z,12.57
2022-12-23T12:41:39.465Z,14.77
2022-12-23T12:44:26.415Z,15.40
2022-12-23T12:46:56.023Z,14.38
2022-12-23T12:54:45.869Z,13.27
2022-12-23T12:57:14.825Z,14.95
2022-12-23T12:59:42.451Z,15.23
2022-12-23T13:02:29.498Z,13.73
2022-12-23T13:05:06.544Z,14.27
2022-12-23T13:23:43.081Z,12.38
2022-12-23T13:26:14.497Z,14.00
2022-12-23T13:28:55.631Z,14.88
2022-12-23T13:34:06.763Z,16.85
2022-12-23T13:36:53.131Z,12.13
2022-12-23T13:42:05.110Z,12.85
2022-12-23T13:44:34.478Z,13.45
2022-12-23T13:52:33.453Z,11.85
2022-12-23T13:55:20.349Z,14.90
2022-12-23T14:00:27.490Z,14.65
2022-12-23T14:05:38.211Z,16.10
2022-12-23T14:08:19.754Z,17.02
2022-12-23T14:10:57.935Z,14.75
2022-12-23T14:13:26.864Z,17.52
2022-12-23T14:16:02.119Z,16.95
2022-12-23T14:34:41.173Z,18.35
2022-12-23T14:40:23.015Z,24.67
2022-12-23T14:42:50.243Z,17.67
2022-12-23T14:45:28.964Z,21.65
2022-12-23T14:47:56.320Z,19.98
2022-12-23T14:50:40.667Z,18.13
2022-12-23T14:53:27.631Z,21.48
2022-12-23T14:56:11.987Z,18.52
2022-12-23T15:01:29.437Z,18.70
2022-12-23T15:04:01.340Z,24.58
2022-12-23T15:06:33.711Z,24.17
2022-12-23T15:09:01.796Z,26.15
2022-12-23T15:11:30.970Z,23.38
2022-12-23T15:14:00.004Z,21.25
2022-12-23T15:16:30.314Z,22.45
2022-12-23T15:18:58.832Z,21.48
2022-12-23T15:21:28.816Z,19.65
2022-12-23T15:23:56.233Z,24.65
2022-12-23T15:26:26.025Z,21.77
2022-12-23T15:28:55.620Z,20.58
2022-12-23T15:31:26.548Z,21.50
2022-12-23T15:46:42.701Z,21.77
2022-12-23T15:49:23.875Z,23.30
2022-12-23T15:52:11.062Z,23.52
2022-12-23T15:54:55.246Z,22.05
2022-12-23T15:57:31.446Z,26.33
2022-12-23T16:00:02.370Z,26.30
2022-12-23T16:03:03.119Z,22.35
2022-12-23T16:05:42.978Z,25.80
2022-12-23T16:11:02.307Z,23.38
2022-12-23T16:13:30.967Z,21.83
2022-12-23T16:16:25.544Z,25.30
2022-12-23T16:19:03.850Z,26.88
2022-12-23T16:21:38.391Z,25.10
2022-12-23T16:24:13.121Z,28.85
2022-12-23T16:26:47.854Z,25.25
2022-12-23T16:29:21.424Z,22.92
2022-12-23T16:32:04.419Z,24.17
2022-12-23T16:34:36.077Z,20.55
2022-12-23T16:37:07.828Z,30.33
2022-12-23T16:39:44.018Z,27.92
2022-12-23T16:42:18.392Z,20.98
2022-12-23T16:44:56.350Z,25.77
2022-12-23T17:00:19.750Z,25.95
2022-12-23T17:02:47.875Z,21.35
2022-12-23T17:05:16.592Z,27.70
2022-12-23T17:07:45.585Z,23.55
2022-12-23T17:10:13.909Z,24.10
2022-12-23T17:12:41.578Z,24.52
2022-12-23T17:15:11.938Z,24.92
2022-12-23T17:17:39.189Z,23.38
2022-12-23T17:20:06.959Z,21.83
2022-12-23T17:22:35.424Z,24.67
2022-12-23T17:25:02.924Z,24.70
2022-12-23T17:27:30.717Z,26.88
2022-12-23T17:29:57.809Z,20.50
2022-12-23T17:32:25.063Z,23.42
2022-12-23T17:34:52.277Z,23.35
2022-12-23T17:37:20.110Z,24.90
2022-12-23T17:39:47.951Z,22.25
2022-12-23T17:42:21.652Z,25.80
2022-12-23T17:44:52.293Z,26.33
2022-12-23T17:47:20.723Z,27.00
2022-12-23T17:49:47.854Z,29.17
2022-12-23T17:52:18.113Z,26.90
2022-12-23T17:54:46.453Z,27.80
2022-12-23T17:57:18.440Z,28.05
2022-12-23T18:12:40.551Z,32.40
2022-12-23T18:15:13.644Z,35.85
2022-12-23T18:17:40.832Z,28.33
2022-12-23T18:20:14.320Z,29.10
2022-12-23T18:22:41.560Z,29.92
2022-12-23T18:25:14.124Z,29.77
2022-12-23T18:27:41.299Z,27.27
2022-12-23T18:30:08.711Z,25.65
2022-12-23T18:32:36.265Z,26.60
2022-12-23T18:35:03.851Z,27.65
2022-12-23T18:37:31.082Z,28.58
2022-12-23T18:39:58.195Z,25.95
2022-12-23T18:42:25.412Z,33.83
2022-12-23T18:44:52.496Z,28.67
2022-12-23T18:47:19.590Z,24.30
2022-12-23T18:49:46.714Z,23.23
2022-12-23T18:52:13.890Z,29.10
2022-12-23T18:54:41.055Z,25.23
2022-12-23T18:57:08.157Z,25.83
2022-12-23T18:59:37.913Z,23.65
2022-12-23T19:02:05.319Z,24.70
2022-12-23T19:04:32.519Z,23.80
2022-12-23T19:06:59.711Z,25.80
2022-12-23T19:09:26.940Z,22.85
2022-12-23T19:25:04.093Z,24.13
2022-12-23T19:27:32.554Z,22.48
2022-12-23T19:29:59.619Z,25.40
2022-12-23T19:32:26.763Z,25.50
2022-12-23T19:34:53.875Z,25.65
2022-12-23T19:37:20.979Z,25.85
2022-12-23T19:39:48.152Z,22.23
2022-12-23T19:42:15.273Z,25.90
2022-12-23T19:44:42.411Z,25.13
2022-12-23T19:47:09.523Z,26.77
2022-12-23T19:49:36.649Z,24.92
2022-12-23T19:52:03.858Z,33.03
2022-12-23T19:54:30.995Z,27.05
2022-12-23T19:56:58.121Z,30.95
2022-12-23T19:59:25.265Z,29.95
2022-12-23T20:01:52.610Z,25.73
2022-12-23T20:04:20.452Z,25.55
2022-12-23T20:06:47.594Z,34.40
2022-12-23T20:09:14.921Z,26.20
2022-12-23T20:11:43.428Z,23.30
2022-12-23T20:14:10.915Z,28.63
2022-12-23T20:16:38.818Z,27.05
2022-12-23T20:19:06.168Z,27.98
2022-12-23T20:21:34.371Z,28.65
2022-12-23T20:24:02.247Z,28.13
2022-12-23T20:26:29.552Z,28.42
2022-12-23T20:28:57.145Z,22.70
2022-12-23T20:31:25.357Z,24.42
2022-12-23T20:33:53.401Z,25.40
2022-12-23T20:36:22.564Z,20.55
2022-12-23T20:38:51.051Z,21.90
2022-12-23T20:41:19.587Z,25.02
2022-12-23T20:44:02.921Z,26.92
2022-12-23T20:46:34.562Z,25.63
2022-12-23T20:49:01.780Z,29.95
2022-12-23T20:51:28.994Z,28.73
2022-12-23T20:53:59.942Z,23.80
2022-12-23T20:56:28.017Z,23.77
2022-12-23T20:58:55.339Z,26.45
2022-12-23T21:01:23.380Z,23.52
2022-12-23T21:16:42.194Z,27.75
2022-12-23T21:19:14.623Z,22.27
2022-12-23T21:21:41.785Z,21.50
2022-12-23T21:24:10.096Z,23.02
2022-12-23T21:26:37.339Z,23.45
2022-12-23T21:29:05.873Z,18.38
2022-12-23T21:31:34.156Z,23.13
2022-12-23T21:34:01.662Z,22.10
2022-12-23T21:36:31.317Z,21.50
2022-12-23T21:38:59.193Z,21.30
2022-12-23T21:41:28.747Z,20.27
2022-12-23T21:43:57.927Z,18.38
2022-12-23T21:46:25.339Z,18.52
2022-12-23T21:48:52.807Z,18.05
2022-12-23T21:51:21.463Z,20.30
2022-12-23T21:53:49.663Z,19.63
2022-12-23T21:56:20.459Z,17.25
2022-12-23T21:58:47.896Z,17.85
2022-12-23T22:01:16.751Z,18.63
2022-12-23T22:03:44.277Z,18.30
2022-12-23T22:06:13.912Z,20.30
2022-12-23T22:08:41.121Z,18.05
2022-12-23T22:11:09.107Z,19.05
2022-12-23T22:13:36.720Z,18.73
2022-12-23T22:28:55.670Z,17.00
2022-12-23T22:34:08.297Z,16.05
2022-12-23T22:36:35.588Z,16.40
2022-12-23T22:39:03.406Z,14.40
2022-12-23T22:41:31.404Z,13.57
2022-12-23T22:43:59.374Z,15.50
2022-12-23T22:46:26.943Z,15.48
2022-12-23T22:48:54.585Z,15.73
2022-12-23T22:51:23.155Z,15.88
2022-12-23T22:53:50.415Z,16.17
2022-12-23T22:56:18.808Z,15.63
2022-12-23T22:58:46.020Z,11.98
2022-12-23T23:01:19.570Z,13.10
2022-12-23T23:03:46.661Z,14.57
2022-12-23T23:06:13.826Z,13.43
2022-12-23T23:08:41.834Z,13.50
2022-12-23T23:11:09.071Z,14.00
2022-12-23T23:13:36.275Z,12.88
2022-12-23T23:16:03.550Z,13.95
2022-12-23T23:18:30.868Z,15.57
2022-12-23T23:20:58.115Z,10.52
2022-12-23T23:23:26.421Z,13.15
2022-12-23T23:25:53.593Z,13.25
2022-12-23T23:41:16.168Z,15.43
2022-12-23T23:43:47.641Z,18.50
2022-12-23T23:46:14.823Z,15.60
2022-12-23T23:48:41.951Z,15.77
2022-12-23T23:51:09.079Z,16.67
2022-12-23T23:53:36.178Z,15.32
2022-12-23T23:56:04.917Z,15.20
2022-12-23T23:58:32.070Z,14.52
